Maria — SV7156 — position and weather

sailwx.info

Track history (hours):
 
Tides and Currents Weather Stations Pressure Air Temp Water Temp Dewpoint Dewpoint Depression Visibility Wind Speed Wind Dir Waves Ship Positions

Maria

Last reported at 2015-Jun-29 16:13 UTC. Time now 2015-Jun-30 08:18 UTC.
Position N 37°58' E 023°35'.

Length 74 m; draft 4.5 m.

Type: Ship. MMSI: 237493000.

Date/timePositionNaut miles runAvg speedWind from/ knotsBaromVisibWave heightAir tempDewpointWater temp
2015-Jun-29 16:13N 37°58' E 023°35'1 1.5
2015-Jun-29 15:34N 37°57' E 023°36'0 0.0
2015-Jun-29 14:34N 37°57' E 023°36'0 0.0
2015-Jun-29 13:34N 37°57' E 023°36'0 0.0
2015-Jun-29 12:34N 37°57' E 023°36'0 0.0
2015-Jun-29 11:33N 37°57' E 023°36'0 0.0
2015-Jun-29 10:34N 37°57' E 023°36'1 1.0
2015-Jun-29 09:34N 37°58' E 023°35'0 0.0
2015-Jun-29 08:34N 37°58' E 023°35'0 0.1
2015-Jun-29 07:34N 37°58' E 023°35'0 0.0
2015-Jun-29 06:34N 37°58' E 023°35'0 0.1
2015-Jun-29 05:34N 37°58' E 023°35'0 0.0
2015-Jun-29 04:33N 37°58' E 023°35'0 0.0
2015-Jun-29 03:34N 37°58' E 023°35'0 0.0
2015-Jun-29 02:33N 37°58' E 023°35'0 0.0
2015-Jun-29 01:33N 37°58' E 023°35'1 0.6
2015-Jun-29 00:34N 37°57' E 023°35'0 0.0
2015-Jun-28 23:33N 37°57' E 023°35'0 0.0
2015-Jun-28 22:23N 37°57' E 023°35'0 0.0
2015-Jun-28 21:34N 37°57' E 023°35'1 0.6
2015-Jun-28 20:33N 37°58' E 023°35'0 0.0
2015-Jun-28 05:33N 37°57' E 023°35'0 0.3
2015-Jun-28 04:33N 37°57' E 023°34'4 4.1
2015-Jun-28 03:33N 38°01' E 023°35'0 0.0
2015-Jun-28 02:33N 38°01' E 023°35'0 0.0
2015-Jun-28 01:31N 38°01' E 023°35'0 0.0
2015-Jun-28 00:33N 38°01' E 023°35'0 0.0
2015-Jun-27 23:33N 38°01' E 023°35'0 0.0
2015-Jun-27 22:33N 38°01' E 023°35'0 0.0
2015-Jun-27 21:33N 38°01' E 023°35'1 0.8
2015-Jun-27 20:33N 38°02' E 023°36'0 0.0
2015-Jun-27 19:33N 38°02' E 023°36'0 0.0
2015-Jun-27 18:33N 38°02' E 023°36'0 0.0
2015-Jun-27 17:33N 38°02' E 023°36'1 1.0
2015-Jun-27 16:33N 38°01' E 023°35'0 0.0
2015-Jun-27 15:33N 38°01' E 023°35'0 0.0
2015-Jun-27 14:33N 38°01' E 023°35'0 0.0
2015-Jun-27 13:33N 38°01' E 023°35'4 3.8
2015-Jun-27 12:34N 37°58' E 023°35'0 0.0
2015-Jun-26 16:33N 37°58' E 023°35'0 0.5
2015-Jun-26 15:33N 37°57' E 023°35'0 0.0
2015-Jun-26 14:33N 37°57' E 023°35'0 0.0
2015-Jun-26 13:33N 37°57' E 023°35'0 0.0
2015-Jun-26 12:33N 37°57' E 023°35'0 0.0
2015-Jun-26 11:33N 37°57' E 023°35'0 0.3
2015-Jun-26 10:33N 37°57' E 023°35'0 0.0
2015-Jun-26 09:33N 37°57' E 023°35'0 0.0
2015-Jun-26 08:33N 37°57' E 023°35'0 0.0
2015-Jun-26 07:33N 37°57' E 023°35'0 0.0
2015-Jun-26 06:33N 37°57' E 023°35'6 0.3
2015-Jun-25 12:33N 38°02' E 023°31'0 0.0
2015-Jun-25 11:33N 38°02' E 023°31'0 0.0
2015-Jun-25 10:33N 38°02' E 023°31'0 0.0
2015-Jun-25 09:33N 38°02' E 023°31'0 0.0
2015-Jun-25 08:33N 38°02' E 023°31'0 0.0
2015-Jun-25 07:33N 38°02' E 023°31'0 0.0
2015-Jun-25 06:30N 38°02' E 023°31'0 0.0
2015-Jun-25 05:19N 38°02' E 023°31'0 0.0
2015-Jun-25 04:18N 38°02' E 023°31'0 0.0
2015-Jun-25 03:33N 38°02' E 023°31'1 0.7
2015-Jun-25 02:33N 38°02' E 023°31'0 0.0
2015-Jun-25 01:33N 38°02' E 023°31'0 0.0
2015-Jun-25 00:33N 38°02' E 023°31'0 0.0
2015-Jun-24 23:33N 38°02' E 023°31'0 0.0
2015-Jun-24 22:28N 38°02' E 023°31'0 0.1
2015-Jun-24 21:27N 38°02' E 023°31'0 0.0
2015-Jun-24 20:33N 38°02' E 023°31'0 0.0
2015-Jun-24 19:32N 38°02' E 023°31'0 0.0
2015-Jun-24 18:33N 38°02' E 023°31'5 4.8
2015-Jun-24 17:33N 37°58' E 023°35'  
2015-Jun-22 11:28N 37°58' E 023°35'3 3.1
2015-Jun-22 10:33N 37°55' E 023°34'0 0.0
2015-Jun-22 09:33N 37°55' E 023°34'0 0.0
2015-Jun-22 08:33N 37°55' E 023°34'0 0.0
2015-Jun-22 07:33N 37°55' E 023°34'1 0.9
2015-Jun-22 06:33N 37°56' E 023°34'2 1.8
2015-Jun-22 05:29N 37°58' E 023°35'2 2.4
2015-Jun-22 04:33N 37°59' E 023°33'2 2.3
2015-Jun-22 03:32N 38°01' E 023°31'0 0.0
2015-Jun-22 02:33N 38°01' E 023°31'0 0.0
2015-Jun-22 01:33N 38°01' E 023°31'0 0.0
2015-Jun-22 00:33N 38°01' E 023°31'0 0.0
2015-Jun-21 23:33N 38°01' E 023°31'0 0.0
2015-Jun-21 22:33N 38°01' E 023°31'1 0.8
2015-Jun-21 21:29N 38°02' E 023°31'0 0.1
2015-Jun-21 20:32N 38°02' E 023°31'0 0.0
2015-Jun-21 19:33N 38°02' E 023°31'0 0.0
2015-Jun-21 18:33N 38°02' E 023°31'0 0.0
2015-Jun-21 17:33N 38°02' E 023°31'5 5.0
2015-Jun-21 16:33N 37°58' E 023°33'3 3.1
2015-Jun-21 15:33N 37°55' E 023°34'0 0.0
2015-Jun-21 14:33N 37°55' E 023°34'0 0.0
2015-Jun-21 13:33N 37°55' E 023°34'3 3.2
2015-Jun-21 12:33N 37°58' E 023°35'0 0.0
2015-Jun-21 11:33N 37°58' E 023°35'0 0.0
2015-Jun-20 22:23N 37°58' E 023°35'5 6.3
2015-Jun-20 21:33N 37°53' E 023°32'1 0.7
2015-Jun-20 20:33N 37°52' E 023°31'0 0.0
2015-Jun-20 19:33N 37°52' E 023°31'1 0.7
2015-Jun-20 18:33N 37°53' E 023°32'5 5.2
2015-Jun-20 17:33N 37°58' E 023°35'0 0.3
2015-Jun-20 16:33N 37°57' E 023°35'5 3.8
2015-Jun-20 15:18N 38°01' E 023°31'0 0.0
2015-Jun-20 14:17N 38°01' E 023°31'0 0.0
2015-Jun-20 09:09N 38°01' E 023°31'0 0.5
2015-Jun-20 08:33N 38°01' E 023°31'4 4.4
2015-Jun-20 07:33N 37°58' E 023°35'0 0.1
2015-Jun-20 06:33N 37°58' E 023°35'0 0.1
2015-Jun-20 05:33N 37°58' E 023°35'0 0.0
2015-Jun-19 17:33N 37°58' E 023°35'5 4.4
2015-Jun-19 16:18N 38°02' E 023°31'  
Track history (hours):
 
Tides and Currents Weather Stations Pressure Air Temp Water Temp Dewpoint Dewpoint Depression Visibility Wind Speed Wind Dir Waves Ship Positions

Maria

Last reported at 2015-Jun-29 16:13 UTC. Time now 2015-Jun-30 08:18 UTC.
Position N 37°58' E 023°35'.

Length 74 m; draft 4.5 m.

Type: Ship. MMSI: 237493000.

Date/timePositionNaut miles runAvg speedWind from/ knotsBaromVisibWave heightAir tempDewpointWater temp
2015-Jun-29 16:13N 37°58' E 023°35'1 1.5
2015-Jun-29 15:34N 37°57' E 023°36'0 0.0
2015-Jun-29 14:34N 37°57' E 023°36'0 0.0
2015-Jun-29 13:34N 37°57' E 023°36'0 0.0
2015-Jun-29 12:34N 37°57' E 023°36'0 0.0
2015-Jun-29 11:33N 37°57' E 023°36'0 0.0
2015-Jun-29 10:34N 37°57' E 023°36'1 1.0
2015-Jun-29 09:34N 37°58' E 023°35'0 0.0
2015-Jun-29 08:34N 37°58' E 023°35'0 0.1
2015-Jun-29 07:34N 37°58' E 023°35'0 0.0
2015-Jun-29 06:34N 37°58' E 023°35'0 0.1
2015-Jun-29 05:34N 37°58' E 023°35'0 0.0
2015-Jun-29 04:33N 37°58' E 023°35'0 0.0
2015-Jun-29 03:34N 37°58' E 023°35'0 0.0
2015-Jun-29 02:33N 37°58' E 023°35'0 0.0
2015-Jun-29 01:33N 37°58' E 023°35'1 0.6
2015-Jun-29 00:34N 37°57' E 023°35'0 0.0
2015-Jun-28 23:33N 37°57' E 023°35'0 0.0
2015-Jun-28 22:23N 37°57' E 023°35'0 0.0
2015-Jun-28 21:34N 37°57' E 023°35'1 0.6
2015-Jun-28 20:33N 37°58' E 023°35'0 0.0
2015-Jun-28 05:33N 37°57' E 023°35'0 0.3
2015-Jun-28 04:33N 37°57' E 023°34'4 4.1
2015-Jun-28 03:33N 38°01' E 023°35'0 0.0
2015-Jun-28 02:33N 38°01' E 023°35'0 0.0
2015-Jun-28 01:31N 38°01' E 023°35'0 0.0
2015-Jun-28 00:33N 38°01' E 023°35'0 0.0
2015-Jun-27 23:33N 38°01' E 023°35'0 0.0
2015-Jun-27 22:33N 38°01' E 023°35'0 0.0
2015-Jun-27 21:33N 38°01' E 023°35'1 0.8
2015-Jun-27 20:33N 38°02' E 023°36'0 0.0
2015-Jun-27 19:33N 38°02' E 023°36'0 0.0
2015-Jun-27 18:33N 38°02' E 023°36'0 0.0
2015-Jun-27 17:33N 38°02' E 023°36'1 1.0
2015-Jun-27 16:33N 38°01' E 023°35'0 0.0
2015-Jun-27 15:33N 38°01' E 023°35'0 0.0
2015-Jun-27 14:33N 38°01' E 023°35'0 0.0
2015-Jun-27 13:33N 38°01' E 023°35'4 3.8
2015-Jun-27 12:34N 37°58' E 023°35'0 0.0
2015-Jun-26 16:33N 37°58' E 023°35'0 0.5
2015-Jun-26 15:33N 37°57' E 023°35'0 0.0
2015-Jun-26 14:33N 37°57' E 023°35'0 0.0
2015-Jun-26 13:33N 37°57' E 023°35'0 0.0
2015-Jun-26 12:33N 37°57' E 023°35'0 0.0
2015-Jun-26 11:33N 37°57' E 023°35'0 0.3
2015-Jun-26 10:33N 37°57' E 023°35'0 0.0
2015-Jun-26 09:33N 37°57' E 023°35'0 0.0
2015-Jun-26 08:33N 37°57' E 023°35'0 0.0
2015-Jun-26 07:33N 37°57' E 023°35'0 0.0
2015-Jun-26 06:33N 37°57' E 023°35'6 0.3
2015-Jun-25 12:33N 38°02' E 023°31'0 0.0
2015-Jun-25 11:33N 38°02' E 023°31'0 0.0
2015-Jun-25 10:33N 38°02' E 023°31'0 0.0
2015-Jun-25 09:33N 38°02' E 023°31'0 0.0
2015-Jun-25 08:33N 38°02' E 023°31'0 0.0
2015-Jun-25 07:33N 38°02' E 023°31'0 0.0
2015-Jun-25 06:30N 38°02' E 023°31'0 0.0
2015-Jun-25 05:19N 38°02' E 023°31'0 0.0
2015-Jun-25 04:18N 38°02' E 023°31'0 0.0
2015-Jun-25 03:33N 38°02' E 023°31'1 0.7
2015-Jun-25 02:33N 38°02' E 023°31'0 0.0
2015-Jun-25 01:33N 38°02' E 023°31'0 0.0
2015-Jun-25 00:33N 38°02' E 023°31'0 0.0
2015-Jun-24 23:33N 38°02' E 023°31'0 0.0
2015-Jun-24 22:28N 38°02' E 023°31'0 0.1
2015-Jun-24 21:27N 38°02' E 023°31'0 0.0
2015-Jun-24 20:33N 38°02' E 023°31'0 0.0
2015-Jun-24 19:32N 38°02' E 023°31'0 0.0
2015-Jun-24 18:33N 38°02' E 023°31'5 4.8
2015-Jun-24 17:33N 37°58' E 023°35'  
2015-Jun-22 11:28N 37°58' E 023°35'3 3.1
2015-Jun-22 10:33N 37°55' E 023°34'0 0.0
2015-Jun-22 09:33N 37°55' E 023°34'0 0.0
2015-Jun-22 08:33N 37°55' E 023°34'0 0.0
2015-Jun-22 07:33N 37°55' E 023°34'1 0.9
2015-Jun-22 06:33N 37°56' E 023°34'2 1.8
2015-Jun-22 05:29N 37°58' E 023°35'2 2.4
2015-Jun-22 04:33N 37°59' E 023°33'2 2.3
2015-Jun-22 03:32N 38°01' E 023°31'0 0.0
2015-Jun-22 02:33N 38°01' E 023°31'0 0.0
2015-Jun-22 01:33N 38°01' E 023°31'0 0.0
2015-Jun-22 00:33N 38°01' E 023°31'0 0.0
2015-Jun-21 23:33N 38°01' E 023°31'0 0.0
2015-Jun-21 22:33N 38°01' E 023°31'1 0.8
2015-Jun-21 21:29N 38°02' E 023°31'0 0.1
2015-Jun-21 20:32N 38°02' E 023°31'0 0.0
2015-Jun-21 19:33N 38°02' E 023°31'0 0.0
2015-Jun-21 18:33N 38°02' E 023°31'0 0.0
2015-Jun-21 17:33N 38°02' E 023°31'5 5.0
2015-Jun-21 16:33N 37°58' E 023°33'3 3.1
2015-Jun-21 15:33N 37°55' E 023°34'0 0.0
2015-Jun-21 14:33N 37°55' E 023°34'0 0.0
2015-Jun-21 13:33N 37°55' E 023°34'3 3.2
2015-Jun-21 12:33N 37°58' E 023°35'0 0.0
2015-Jun-21 11:33N 37°58' E 023°35'0 0.0
2015-Jun-20 22:23N 37°58' E 023°35'5 6.3
2015-Jun-20 21:33N 37°53' E 023°32'1 0.7
2015-Jun-20 20:33N 37°52' E 023°31'0 0.0
2015-Jun-20 19:33N 37°52' E 023°31'1 0.7
2015-Jun-20 18:33N 37°53' E 023°32'5 5.2
2015-Jun-20 17:33N 37°58' E 023°35'0 0.3
2015-Jun-20 16:33N 37°57' E 023°35'5 3.8
2015-Jun-20 15:18N 38°01' E 023°31'0 0.0
2015-Jun-20 14:17N 38°01' E 023°31'0 0.0
2015-Jun-20 09:09N 38°01' E 023°31'0 0.5
2015-Jun-20 08:33N 38°01' E 023°31'4 4.4
2015-Jun-20 07:33N 37°58' E 023°35'0 0.1
2015-Jun-20 06:33N 37°58' E 023°35'0 0.1
2015-Jun-20 05:33N 37°58' E 023°35'0 0.0
2015-Jun-19 17:33N 37°58' E 023°35'5 4.4
2015-Jun-19 16:18N 38°02' E 023°31'  

Dump ship's entire track history